Time;durP1;ratioP1;P1;durP2;ratioP2;P2;SDS_P1;SDS_P2;PMS_P1;PMS_P2;Temp;Humidity;BMP_temperature;BMP_pressure;BME280_temperature;BME280_humidity;BME280_pressure;Samples;Min_cycle;Max_cycle;Signal;HPM_P1;HPM_P2
2021/08/28 00:01:22;;;;;;;11.30;5.80;;;15.70;89.20;;;;;;5096738;28;20175;-90
2021/08/28 00:03:48;;;;;;;7.30;5.55;;;15.80;89.30;;;;;;5078896;28;20538;-90
2021/08/28 00:06:14;;;;;;;7.00;5.78;;;15.70;89.40;;;;;;5078530;28;20171;-90
2021/08/28 00:08:40;;;;;;;8.48;5.75;;;15.80;89.40;;;;;;5078278;28;20306;-89
2021/08/28 00:11:07;;;;;;;9.27;6.65;;;15.70;89.30;;;;;;5096901;28;20167;-90
2021/08/28 00:13:32;;;;;;;11.30;6.80;;;15.70;89.50;;;;;;5078461;28;20588;-89
2021/08/28 00:15:58;;;;;;;8.18;6.65;;;15.70;89.70;;;;;;5078308;28;20185;-89
2021/08/28 00:18:24;;;;;;;9.80;6.10;;;15.60;90.00;;;;;;5096388;28;20237;-90
2021/08/28 00:20:49;;;;;;;6.70;5.60;;;15.60;90.00;;;;;;5078636;28;20217;-89
2021/08/28 00:23:15;;;;;;;9.10;7.05;;;15.60;90.00;;;;;;5078408;28;20209;-89
2021/08/28 00:25:41;;;;;;;12.20;6.75;;;15.60;90.10;;;;;;5078226;28;20174;-89
2021/08/28 00:28:07;;;;;;;9.35;7.22;;;15.50;90.30;;;;;;5096172;28;20190;-90
2021/08/28 00:30:33;;;;;;;9.07;6.95;;;15.50;90.50;;;;;;5078183;28;20641;-91
2021/08/28 00:33:10;;;;;;;11.27;7.28;;;15.40;90.70;;;;;;5096356;28;20541;-91
2021/08/28 00:35:36;;;;;;;9.52;6.72;;;15.40;90.80;;;;;;5096163;28;20233;-91
2021/08/28 00:38:01;;;;;;;10.02;7.53;;;15.40;90.90;;;;;;5095311;28;20230;-91
2021/08/28 00:40:27;;;;;;;9.43;6.60;;;15.30;91.00;;;;;;5077791;28;20163;-91
2021/08/28 00:42:53;;;;;;;11.52;6.45;;;15.30;91.10;;;;;;5095971;28;20201;-91
2021/08/28 00:45:29;;;;;;;9.70;7.35;;;15.30;91.20;;;;;;5077941;28;20170;-91
2021/08/28 00:48:03;;;;;;;9.48;6.97;;;15.30;91.40;;;;;;5095754;28;20163;-91
2021/08/28 00:50:29;;;;;;;10.80;7.95;;;15.20;91.50;;;;;;5095852;28;20158;-91
2021/08/28 00:52:55;;;;;;;11.75;7.55;;;15.20;91.70;;;;;;5095812;28;20652;-91
2021/08/28 00:55:25;;;;;;;8.25;6.78;;;15.20;91.80;;;;;;5078149;28;20213;-90
2021/08/28 00:57:51;;;;;;;12.27;7.45;;;15.20;91.90;;;;;;5077432;28;20182;-89
2021/08/28 01:00:18;;;;;;;9.80;7.18;;;15.20;92.00;;;;;;5077740;28;20170;-89
2021/08/28 01:02:48;;;;;;;10.32;7.05;;;15.20;92.00;;;;;;5077432;28;20195;-90
2021/08/28 01:05:20;;;;;;;7.65;6.85;;;15.20;92.10;;;;;;5077565;28;20166;-90
2021/08/28 01:08:14;;;;;;;12.38;6.57;;;15.20;92.20;;;;;;5077955;28;20159;-90
2021/08/28 01:10:53;;;;;;;9.53;6.47;;;15.20;92.20;;;;;;5077569;28;20167;-90
2021/08/28 01:13:20;;;;;;;8.27;5.93;;;15.20;92.30;;;;;;5095438;28;20163;-91
2021/08/28 01:15:48;;;;;;;6.90;4.90;;;15.10;92.30;;;;;;5095388;28;20203;-91
2021/08/28 01:18:16;;;;;;;7.45;5.25;;;15.10;92.30;;;;;;5095435;28;20187;-90
2021/08/28 01:21:02;;;;;;;6.40;5.10;;;15.10;92.30;;;;;;5077107;28;20253;-90
2021/08/28 01:23:34;;;;;;;6.72;5.95;;;15.10;92.30;;;;;;5077654;28;20243;-90
2021/08/28 01:26:08;;;;;;;8.43;5.75;;;15.10;92.40;;;;;;5077146;28;20204;-90
2021/08/28 01:28:41;;;;;;;7.40;5.38;;;15.00;92.40;;;;;;5076937;28;20199;-90
2021/08/28 01:31:10;;;;;;;7.68;5.68;;;15.10;92.50;;;;;;5076972;28;20161;-90
2021/08/28 01:33:37;;;;;;;8.98;5.38;;;15.00;92.50;;;;;;5076759;28;20598;-90
2021/08/28 01:36:04;;;;;;;8.70;5.90;;;15.00;92.50;;;;;;5077221;28;20170;-90
2021/08/28 01:38:30;;;;;;;8.43;4.93;;;15.10;92.50;;;;;;5076795;28;20705;-90
2021/08/28 01:40:56;;;;;;;4.72;4.25;;;15.00;92.50;;;;;;5076776;28;20298;-90
2021/08/28 01:43:23;;;;;;;8.05;4.80;;;15.00;92.50;;;;;;5094753;28;20240;-90
2021/08/28 01:45:49;;;;;;;5.47;4.25;;;15.00;92.50;;;;;;5076584;28;20178;-90
2021/08/28 01:48:16;;;;;;;8.77;5.30;;;15.00;92.40;;;;;;5076448;28;20232;-90
2021/08/28 01:50:42;;;;;;;6.45;5.85;;;14.90;92.50;;;;;;5094616;28;20163;-90
2021/08/28 01:53:08;;;;;;;7.82;6.20;;;14.90;92.50;;;;;;5076461;28;20657;-89
2021/08/28 01:55:34;;;;;;;7.80;6.03;;;15.00;92.50;;;;;;5076404;28;20174;-90
2021/08/28 01:58:00;;;;;;;9.70;6.87;;;15.00;92.50;;;;;;5094457;28;20198;-90
2021/08/28 02:00:26;;;;;;;9.47;6.60;;;15.00;92.50;;;;;;5077003;28;20178;-90
2021/08/28 02:02:52;;;;;;;8.17;6.40;;;15.00;92.50;;;;;;5076268;28;20226;-90
2021/08/28 02:05:17;;;;;;;8.40;6.43;;;15.00;92.50;;;;;;5076571;28;20185;-90
2021/08/28 02:07:52;;;;;;;10.05;6.80;;;15.00;92.40;;;;;;5094857;28;20167;-90
2021/08/28 02:10:27;;;;;;;9.07;6.85;;;14.90;92.40;;;;;;5076122;28;20211;-90
2021/08/28 02:13:01;;;;;;;8.52;7.53;;;14.90;92.40;;;;;;5076198;28;20158;-90
2021/08/28 02:15:33;;;;;;;8.90;7.05;;;14.90;92.50;;;;;;5076495;28;20161;-90
2021/08/28 02:18:14;;;;;;;10.07;7.57;;;14.80;92.50;;;;;;5076220;28;20207;-89
2021/08/28 02:20:43;;;;;;;10.90;8.02;;;14.80;92.60;;;;;;5076923;28;20162;-90
2021/08/28 02:23:13;;;;;;;8.53;7.17;;;14.90;92.60;;;;;;5076103;28;20220;-90
2021/08/28 02:25:41;;;;;;;10.27;6.75;;;14.90;92.60;;;;;;5094106;28;20174;-90
2021/08/28 02:28:10;;;;;;;8.43;7.27;;;14.90;92.50;;;;;;5076214;28;20536;-90
2021/08/28 02:30:36;;;;;;;10.57;8.03;;;14.90;92.50;;;;;;5093979;28;20169;-90
2021/08/28 02:33:05;;;;;;;8.30;7.30;;;14.90;92.50;;;;;;5093920;28;20249;-90
2021/08/28 02:35:32;;;;;;;10.33;7.13;;;14.90;92.60;;;;;;5075724;28;20182;-90
2021/08/28 02:37:59;;;;;;;9.30;7.30;;;14.80;92.60;;;;;;5075544;28;20179;-90
2021/08/28 02:40:27;;;;;;;9.13;6.47;;;14.90;92.60;;;;;;5093873;28;20236;-90
2021/08/28 02:42:54;;;;;;;8.73;6.90;;;14.90;92.50;;;;;;5076118;28;20209;-90
2021/08/28 02:45:23;;;;;;;9.13;7.00;;;14.90;92.40;;;;;;5075641;28;20171;-90
2021/08/28 02:47:50;;;;;;;8.82;7.15;;;14.80;92.30;;;;;;5093655;28;20174;-90
2021/08/28 02:50:18;;;;;;;12.87;7.03;;;14.80;92.30;;;;;;5075504;28;20173;-90
2021/08/28 02:52:46;;;;;;;7.30;6.60;;;14.80;92.40;;;;;;5093589;28;20178;-90
2021/08/28 02:55:13;;;;;;;8.55;6.15;;;14.80;92.40;;;;;;5093799;28;20542;-90
2021/08/28 02:57:41;;;;;;;6.95;6.25;;;14.80;92.30;;;;;;5075376;28;20650;-89
2021/08/28 03:00:07;;;;;;;9.32;7.03;;;14.80;92.20;;;;;;5075477;28;20265;-90
2021/08/28 03:02:35;;;;;;;13.50;6.75;;;14.70;92.30;;;;;;5092853;28;20223;-90
2021/08/28 03:05:01;;;;;;;8.27;6.70;;;14.70;92.30;;;;;;5075485;28;20295;-90
2021/08/28 03:07:27;;;;;;;15.70;7.30;;;14.70;92.40;;;;;;5093526;28;20163;-90
2021/08/28 03:09:54;;;;;;;12.67;7.80;;;14.60;92.50;;;;;;5093346;28;20205;-90
2021/08/28 03:12:19;;;;;;;11.20;8.00;;;14.70;92.50;;;;;;5075686;28;20182;-90
2021/08/28 03:14:45;;;;;;;10.77;8.70;;;14.60;92.60;;;;;;5075255;28;20547;-90
2021/08/28 03:17:14;;;;;;;12.40;8.97;;;14.70;92.50;;;;;;5093380;28;20178;-90
2021/08/28 03:19:43;;;;;;;18.50;9.97;;;14.60;92.60;;;;;;5093217;28;20191;-90
2021/08/28 03:22:16;;;;;;;16.50;9.60;;;14.70;92.70;;;;;;5093523;28;20534;-90
2021/08/28 03:24:44;;;;;;;13.53;9.70;;;14.70;92.70;;;;;;5093512;28;20172;-90
2021/08/28 03:27:10;;;;;;;19.80;10.90;;;14.70;92.80;;;;;;5075135;28;20178;-90
2021/08/28 03:29:37;;;;;;;11.43;10.23;;;14.70;92.90;;;;;;5075176;28;20571;-90
2021/08/28 03:32:04;;;;;;;16.97;10.40;;;14.60;92.90;;;;;;5093498;28;20178;-90
2021/08/28 03:34:32;;;;;;;14.03;10.50;;;14.70;93.00;;;;;;5075496;28;20170;-90
2021/08/28 03:36:58;;;;;;;15.47;12.87;;;14.70;93.00;;;;;;5075177;28;20178;-90
2021/08/28 03:39:24;;;;;;;17.93;11.00;;;14.70;93.10;;;;;;5093537;28;20297;-90
2021/08/28 03:41:50;;;;;;;17.03;10.80;;;14.70;93.10;;;;;;5075102;28;20213;-90
2021/08/28 03:44:19;;;;;;;15.17;11.60;;;14.70;93.10;;;;;;5075643;28;20179;-90
2021/08/28 03:46:47;;;;;;;16.13;11.67;;;14.70;93.20;;;;;;5075143;28;20168;-90
2021/08/28 03:49:14;;;;;;;17.53;11.93;;;14.70;93.20;;;;;;5075172;28;20186;-90
2021/08/28 03:51:40;;;;;;;16.30;11.93;;;14.70;93.20;;;;;;5074928;28;20177;-90
2021/08/28 03:54:05;;;;;;;17.30;12.57;;;14.70;93.20;;;;;;5074919;28;20178;-89
2021/08/28 03:56:31;;;;;;;14.17;11.77;;;14.70;93.20;;;;;;5093256;28;20626;-90
2021/08/28 03:58:57;;;;;;;14.87;12.23;;;14.70;93.20;;;;;;5075433;28;20194;-90
2021/08/28 04:01:22;;;;;;;17.07;12.80;;;14.60;93.30;;;;;;5074854;28;20166;-90
2021/08/28 04:03:48;;;;;;;18.47;13.47;;;14.70;93.30;;;;;;5074923;28;20198;-90
2021/08/28 04:06:14;;;;;;;17.00;12.97;;;14.70;93.30;;;;;;5092941;28;20584;-90
2021/08/28 04:08:39;;;;;;;15.63;12.83;;;14.70;93.40;;;;;;5092825;28;20753;-89
2021/08/28 04:11:05;;;;;;;17.20;13.47;;;14.70;93.40;;;;;;5074844;28;20167;-90
2021/08/28 04:13:31;;;;;;;17.33;13.37;;;14.70;93.30;;;;;;5093595;28;20193;-90
2021/08/28 04:15:57;;;;;;;15.87;13.47;;;14.60;93.40;;;;;;5096820;28;20171;-90
2021/08/28 04:18:22;;;;;;;16.17;13.80;;;14.70;93.40;;;;;;5078467;28;20199;-90
2021/08/28 04:20:48;;;;;;;15.93;13.60;;;14.70;93.40;;;;;;5078465;28;20191;-90
2021/08/28 04:23:14;;;;;;;22.23;15.00;;;14.70;93.40;;;;;;5096278;28;20205;-90
2021/08/28 04:25:40;;;;;;;20.67;14.63;;;14.70;93.40;;;;;;5078496;28;20691;-90
2021/08/28 04:28:06;;;;;;;21.30;14.67;;;14.70;93.50;;;;;;5078109;28;20198;-90
2021/08/28 04:30:32;;;;;;;21.33;14.50;;;14.70;93.60;;;;;;5078117;28;20178;-90
2021/08/28 04:32:58;;;;;;;20.83;15.37;;;14.70;93.50;;;;;;5078194;28;20228;-90
2021/08/28 04:35:24;;;;;;;18.67;14.43;;;14.70;93.50;;;;;;5077981;28;20265;-90
2021/08/28 04:37:50;;;;;;;24.77;15.37;;;14.70;93.50;;;;;;5077879;28;20189;-90
2021/08/28 04:40:16;;;;;;;19.53;15.80;;;14.70;93.50;;;;;;5077996;28;20566;-90
2021/08/28 04:42:43;;;;;;;18.40;14.77;;;14.70;93.50;;;;;;5077974;28;20198;-90
2021/08/28 04:45:09;;;;;;;21.57;14.80;;;14.80;93.50;;;;;;5096521;28;20624;-90
2021/08/28 04:47:35;;;;;;;17.87;14.83;;;14.70;93.50;;;;;;5078235;28;20175;-90
2021/08/28 04:50:00;;;;;;;18.27;14.27;;;14.80;93.50;;;;;;5078022;28;20232;-90
2021/08/28 04:52:26;;;;;;;18.13;14.33;;;14.70;93.50;;;;;;5078389;28;20266;-90
2021/08/28 04:54:51;;;;;;;18.87;13.67;;;14.80;93.50;;;;;;5078198;28;20319;-90
2021/08/28 04:57:17;;;;;;;25.73;14.27;;;14.80;93.60;;;;;;5077644;28;20527;-90
2021/08/28 04:59:43;;;;;;;18.73;13.63;;;14.80;93.50;;;;;;5095924;28;20264;-90
2021/08/28 05:02:08;;;;;;;18.90;13.63;;;14.80;93.50;;;;;;5077488;28;20230;-90
2021/08/28 05:04:34;;;;;;;17.80;13.67;;;14.80;93.50;;;;;;5077452;28;20171;-90
2021/08/28 05:07:00;;;;;;;18.43;13.07;;;14.80;93.40;;;;;;5077501;28;20175;-90
2021/08/28 05:09:26;;;;;;;18.40;13.90;;;14.80;93.40;;;;;;5077743;28;20197;-90
2021/08/28 05:11:51;;;;;;;20.17;14.43;;;14.80;93.40;;;;;;5077630;28;20220;-90
2021/08/28 05:14:17;;;;;;;19.80;13.30;;;14.80;93.30;;;;;;5077284;28;20171;-90
2021/08/28 05:16:43;;;;;;;20.37;12.80;;;14.80;93.20;;;;;;5077778;28;20212;-90
2021/08/28 05:19:08;;;;;;;18.30;14.07;;;14.80;93.30;;;;;;5077188;28;20666;-90
2021/08/28 05:21:34;;;;;;;15.20;12.80;;;14.80;93.20;;;;;;5077079;28;20171;-90
2021/08/28 05:24:00;;;;;;;16.40;13.20;;;14.80;93.20;;;;;;5095320;28;20182;-89
2021/08/28 05:26:25;;;;;;;17.73;12.10;;;14.80;93.10;;;;;;5094968;28;20167;-90
2021/08/28 05:28:51;;;;;;;16.27;11.93;;;14.90;93.10;;;;;;5095008;28;20186;-89
2021/08/28 05:31:17;;;;;;;13.67;11.03;;;14.90;93.00;;;;;;5076894;28;20175;-90
2021/08/28 05:33:43;;;;;;;15.27;11.00;;;14.90;92.90;;;;;;5076989;28;20170;-90
2021/08/28 05:36:08;;;;;;;13.00;9.80;;;14.90;92.90;;;;;;5077213;28;20182;-90
2021/08/28 05:38:34;;;;;;;13.53;10.93;;;14.90;92.90;;;;;;5095050;28;20206;-90
2021/08/28 05:41:00;;;;;;;15.07;11.00;;;14.90;92.80;;;;;;5077023;28;20252;-89
2021/08/28 05:43:26;;;;;;;16.48;11.18;;;14.90;92.80;;;;;;5076753;28;20208;-89
2021/08/28 05:45:52;;;;;;;13.43;10.20;;;14.90;92.90;;;;;;5076714;28;20177;-90
2021/08/28 05:48:18;;;;;;;14.10;9.30;;;15.00;92.90;;;;;;5076926;28;20195;-90
2021/08/28 05:50:43;;;;;;;13.87;10.50;;;15.00;92.70;;;;;;5076557;28;20542;-89
2021/08/28 05:53:09;;;;;;;15.20;10.10;;;15.00;92.80;;;;;;5076618;28;20220;-89
2021/08/28 05:55:35;;;;;;;14.03;9.27;;;15.00;92.80;;;;;;5076524;28;20223;-89
2021/08/28 05:58:00;;;;;;;15.17;9.67;;;15.00;92.80;;;;;;5077183;28;20597;-89
2021/08/28 06:00:26;;;;;;;14.93;10.13;;;15.00;92.80;;;;;;5076646;28;20518;-89
2021/08/28 06:02:52;;;;;;;13.88;10.43;;;15.00;92.90;;;;;;5094379;28;20661;-90
2021/08/28 06:05:17;;;;;;;13.53;9.20;;;15.00;92.90;;;;;;5076572;28;20213;-89
2021/08/28 06:07:43;;;;;;;18.25;9.63;;;15.10;93.00;;;;;;5076496;28;20171;-89
2021/08/28 06:10:09;;;;;;;13.27;9.43;;;15.10;93.00;;;;;;5076120;28;20287;-90
2021/08/28 06:12:36;;;;;;;13.20;9.07;;;15.20;93.00;;;;;;5076182;28;20197;-89
2021/08/28 06:15:02;;;;;;;10.05;8.48;;;15.10;93.00;;;;;;5076367;28;20175;-90
2021/08/28 06:17:28;;;;;;;12.65;8.95;;;15.20;93.00;;;;;;5076064;28;20223;-90
2021/08/28 06:19:53;;;;;;;13.35;8.52;;;15.20;92.90;;;;;;5076328;28;20281;-90
2021/08/28 06:22:19;;;;;;;14.77;8.93;;;15.20;92.90;;;;;;5075959;28;20302;-90
2021/08/28 06:24:45;;;;;;;9.23;8.00;;;15.20;92.90;;;;;;5094378;28;20201;-89
2021/08/28 06:27:10;;;;;;;9.13;8.02;;;15.20;92.80;;;;;;5093979;28;20167;-90
2021/08/28 06:29:36;;;;;;;9.50;7.43;;;15.30;92.70;;;;;;5075812;28;20191;-89
2021/08/28 06:32:03;;;;;;;9.77;7.78;;;15.20;92.70;;;;;;5076185;28;20540;-90
2021/08/28 06:34:29;;;;;;;10.38;8.02;;;15.30;92.70;;;;;;5075965;28;20179;-90
2021/08/28 06:36:55;;;;;;;12.18;8.07;;;15.30;92.60;;;;;;5075074;28;20178;-90
2021/08/28 06:39:20;;;;;;;10.57;7.75;;;15.30;92.60;;;;;;5094141;28;20293;-89
2021/08/28 06:41:46;;;;;;;11.02;7.70;;;15.30;92.50;;;;;;5075964;28;20206;-90
2021/08/28 06:44:12;;;;;;;11.30;7.68;;;15.30;92.50;;;;;;5094038;28;20175;-89
2021/08/28 06:46:37;;;;;;;13.50;7.53;;;15.30;92.50;;;;;;5094078;28;20174;-89
2021/08/28 06:49:04;;;;;;;10.30;7.15;;;15.30;92.50;;;;;;5093576;28;20550;-89
2021/08/28 06:51:30;;;;;;;8.00;7.20;;;15.30;92.40;;;;;;5075667;28;20546;-89
2021/08/28 06:53:55;;;;;;;16.15;7.22;;;15.30;92.40;;;;;;5075969;28;20231;-89
2021/08/28 06:56:21;;;;;;;10.27;7.53;;;15.40;92.40;;;;;;5075989;28;20170;-90
2021/08/28 06:58:47;;;;;;;12.57;6.63;;;15.30;92.40;;;;;;5075861;28;20194;-89
2021/08/28 07:01:12;;;;;;;9.60;6.68;;;15.40;92.40;;;;;;5076620;28;20174;-90
2021/08/28 07:03:38;;;;;;;10.17;7.00;;;15.40;92.40;;;;;;5093410;28;20662;-89
2021/08/28 07:06:04;;;;;;;10.90;6.20;;;15.40;92.30;;;;;;5075581;28;20701;-90
2021/08/28 07:08:29;;;;;;;13.27;7.13;;;15.40;92.10;;;;;;5075773;28;20248;-90
2021/08/28 07:10:55;;;;;;;9.57;6.68;;;15.40;92.10;;;;;;5075753;28;20224;-89
2021/08/28 07:13:22;;;;;;;8.25;5.88;;;15.50;92.10;;;;;;5093778;28;20170;-90
2021/08/28 07:15:48;;;;;;;10.57;6.00;;;15.50;92.10;;;;;;5075331;28;20181;-90
2021/08/28 07:18:14;;;;;;;14.60;6.63;;;15.50;92.20;;;;;;5093303;28;20191;-90
2021/08/28 07:20:41;;;;;;;8.50;5.78;;;15.60;92.40;;;;;;5075392;28;20174;-90
2021/08/28 07:23:07;;;;;;;9.45;6.35;;;15.60;92.40;;;;;;5075793;28;20199;-90
2021/08/28 07:25:39;;;;;;;11.88;6.63;;;15.60;92.40;;;;;;5093333;28;20532;-90
2021/08/28 07:28:10;;;;;;;10.70;6.20;;;15.60;92.40;;;;;;5075461;28;20648;-90
2021/08/28 07:30:36;;;;;;;7.50;5.85;;;15.60;92.50;;;;;;5075841;28;20254;-90
2021/08/28 07:33:02;;;;;;;10.32;6.10;;;15.70;92.60;;;;;;5093175;28;20174;-89
2021/08/28 07:35:28;;;;;;;8.80;6.07;;;15.70;92.60;;;;;;5075400;28;20204;-89
2021/08/28 07:37:55;;;;;;;9.25;6.40;;;15.70;92.50;;;;;;5075364;28;20186;-89
2021/08/28 07:40:23;;;;;;;7.22;5.63;;;15.80;92.50;;;;;;5093190;28;20159;-89
2021/08/28 07:42:57;;;;;;;8.35;5.35;;;15.80;92.50;;;;;;5075275;28;20255;-90
2021/08/28 07:45:24;;;;;;;7.93;5.65;;;15.80;92.30;;;;;;5093070;28;20642;-90
2021/08/28 07:47:50;;;;;;;6.07;5.28;;;15.80;92.20;;;;;;5076125;28;20183;-89
2021/08/28 07:50:16;;;;;;;7.13;5.18;;;15.80;92.20;;;;;;5078934;28;20167;-90
2021/08/28 07:52:45;;;;;;;8.10;5.30;;;15.80;92.10;;;;;;5078930;28;20174;-90
2021/08/28 07:55:12;;;;;;;9.07;5.13;;;15.80;92.10;;;;;;5078767;28;20178;-89
2021/08/28 07:57:39;;;;;;;7.00;4.60;;;15.80;92.00;;;;;;5079107;28;20178;-90
2021/08/28 08:00:07;;;;;;;8.07;4.88;;;15.80;91.90;;;;;;5078726;28;20220;-90
2021/08/28 08:02:32;;;;;;;8.35;5.63;;;15.80;92.10;;;;;;5096759;28;20201;-90
2021/08/28 08:04:58;;;;;;;7.95;4.90;;;15.90;92.10;;;;;;5078998;28;20167;-90
2021/08/28 08:07:23;;;;;;;7.28;4.80;;;15.80;92.20;;;;;;5078631;28;20258;-90
2021/08/28 08:09:49;;;;;;;6.53;5.00;;;15.90;92.30;;;;;;5078481;28;20285;-90
2021/08/28 08:12:15;;;;;;;8.15;5.10;;;16.00;92.50;;;;;;5078545;28;20185;-90
2021/08/28 08:14:41;;;;;;;5.82;4.82;;;16.00;92.40;;;;;;5078671;28;20185;-90
2021/08/28 08:17:07;;;;;;;5.38;4.28;;;16.00;92.40;;;;;;5096519;28;20303;-90
2021/08/28 08:19:32;;;;;;;4.78;3.70;;;16.00;92.40;;;;;;5096457;28;20311;-90
2021/08/28 08:21:58;;;;;;;4.95;3.42;;;16.00;92.20;;;;;;5096669;28;20221;-90
2021/08/28 08:24:24;;;;;;;5.50;3.58;;;16.00;92.10;;;;;;5096404;28;20304;-91
2021/08/28 08:26:50;;;;;;;4.50;3.33;;;15.90;92.20;;;;;;5096659;28;20182;-91
2021/08/28 08:29:16;;;;;;;5.53;2.88;;;15.90;92.30;;;;;;5096229;28;20187;-91
2021/08/28 08:31:42;;;;;;;5.45;2.85;;;15.90;92.40;;;;;;5078467;28;20178;-91
2021/08/28 08:34:08;;;;;;;5.00;2.42;;;15.90;92.50;;;;;;5096439;28;20166;-91
2021/08/28 08:36:33;;;;;;;2.75;2.38;;;15.90;92.60;;;;;;5096124;28;20179;-90
2021/08/28 08:38:59;;;;;;;2.92;2.25;;;15.90;92.70;;;;;;5096299;28;20217;-90
2021/08/28 08:41:25;;;;;;;2.40;2.20;;;16.00;92.90;;;;;;5096057;28;20568;-90
2021/08/28 08:43:56;;;;;;;2.78;2.45;;;16.10;92.80;;;;;;5095926;28;20194;-90
2021/08/28 08:46:23;;;;;;;4.20;2.10;;;16.10;92.70;;;;;;5095946;28;20194;-90
2021/08/28 08:48:50;;;;;;;3.45;2.08;;;16.20;92.80;;;;;;5096008;28;20277;-90
2021/08/28 08:51:19;;;;;;;3.35;2.35;;;16.10;92.70;;;;;;5077718;28;20171;-90
2021/08/28 08:53:47;;;;;;;3.40;2.15;;;16.10;92.70;;;;;;5095821;28;20166;-91
2021/08/28 08:56:14;;;;;;;4.18;2.40;;;16.10;92.80;;;;;;5077826;28;20527;-91
2021/08/28 08:58:40;;;;;;;9.88;2.20;;;16.20;92.80;;;;;;5095956;28;20190;-91
2021/08/28 09:01:07;;;;;;;5.22;2.53;;;16.10;92.70;;;;;;5095046;28;20304;-91
2021/08/28 09:03:34;;;;;;;3.53;2.50;;;16.10;92.70;;;;;;5095559;28;20202;-91
2021/08/28 09:06:00;;;;;;;2.58;2.00;;;16.10;92.70;;;;;;5095628;28;20537;-90
2021/08/28 09:08:25;;;;;;;4.35;2.38;;;16.10;92.70;;;;;;5077448;28;20678;-90
2021/08/28 09:10:51;;;;;;;3.15;1.92;;;16.20;92.80;;;;;;5096087;28;20175;-90
2021/08/28 09:13:19;;;;;;;3.35;1.88;;;16.20;93.00;;;;;;5078409;28;20183;-90
2021/08/28 09:16:04;;;;;;;1.98;1.80;;;16.30;93.10;;;;;;5077774;28;20189;-91
2021/08/28 09:18:50;;;;;;;3.45;1.92;;;16.20;92.80;;;;;;5095527;28;20689;-90
2021/08/28 09:21:16;;;;;;;5.25;1.83;;;16.30;92.90;;;;;;5077354;28;20550;-90
2021/08/28 09:23:42;;;;;;;2.47;2.00;;;16.30;92.60;;;;;;5095266;28;20198;-90
2021/08/28 09:26:29;;;;;;;2.80;1.80;;;16.30;92.50;;;;;;5078133;28;20171;-90
2021/08/28 09:28:56;;;;;;;4.60;1.70;;;16.30;92.40;;;;;;5077276;28;20186;-90
2021/08/28 09:31:39;;;;;;;2.17;2.00;;;16.30;92.30;;;;;;5095516;28;20537;-90
2021/08/28 09:34:40;;;;;;;3.67;1.98;;;16.30;91.90;;;;;;5077049;28;20167;-89
2021/08/28 09:37:07;;;;;;;2.00;1.70;;;16.30;92.00;;;;;;4996802;28;20184;-90
2021/08/28 09:39:38;;;;;;;3.78;2.10;;;16.20;91.30;;;;;;5060939;28;20588;-89
2021/08/28 09:42:04;;;;;;;8.75;1.88;;;16.20;91.60;;;;;;5076773;28;20292;-90
2021/08/28 09:44:37;;;;;;;3.67;2.45;;;16.30;91.80;;;;;;5094866;28;20235;-90
2021/08/28 09:47:14;;;;;;;4.13;1.90;;;16.30;91.70;;;;;;5076688;28;20175;-90
2021/08/28 09:49:43;;;;;;;4.95;2.30;;;16.20;91.70;;;;;;5076680;28;20207;-90
2021/08/28 09:52:14;;;;;;;3.08;2.47;;;16.30;91.70;;;;;;5094657;28;20224;-90
2021/08/28 09:54:41;;;;;;;7.38;2.80;;;16.30;91.70;;;;;;5076588;28;20194;-90
2021/08/28 09:57:07;;;;;;;4.93;2.60;;;16.40;91.80;;;;;;5077381;28;20210;-90
2021/08/28 09:59:33;;;;;;;4.20;2.22;;;16.50;91.70;;;;;;5076414;28;20199;-90
2021/08/28 10:02:04;;;;;;;3.88;1.75;;;16.70;91.80;;;;;;5076287;28;20206;-90
2021/08/28 10:04:30;;;;;;;4.70;1.50;;;16.80;91.10;;;;;;5095089;28;20667;-90
2021/08/28 10:06:57;;;;;;;2.88;1.83;;;17.00;90.80;;;;;;5094442;28;20167;-89
2021/08/28 10:09:23;;;;;;;1.67;1.58;;;16.90;89.80;;;;;;5076154;28;20198;-89
2021/08/28 10:11:52;;;;;;;2.75;1.75;;;16.80;89.30;;;;;;5075159;28;20171;-89
2021/08/28 10:14:19;;;;;;;2.78;1.60;;;16.80;89.70;;;;;;5077025;28;20181;-89
2021/08/28 10:16:47;;;;;;;2.10;1.50;;;16.90;89.60;;;;;;5076090;28;20198;-89
2021/08/28 10:19:17;;;;;;;8.35;2.15;;;16.90;90.00;;;;;;5094061;28;20205;-89
2021/08/28 10:21:45;;;;;;;4.32;1.92;;;17.00;90.50;;;;;;5076268;28;20174;-89
2021/08/28 10:24:14;;;;;;;4.05;2.45;;;16.90;90.30;;;;;;5094393;28;20570;-89
2021/08/28 10:26:43;;;;;;;1.73;1.42;;;16.90;90.30;;;;;;5094095;28;20575;-89
2021/08/28 10:29:13;;;;;;;2.30;1.50;;;16.80;88.60;;;;;;5075819;28;20201;-89
2021/08/28 10:31:39;;;;;;;2.88;1.30;;;16.70;88.90;;;;;;5075845;28;20603;-89
2021/08/28 10:34:06;;;;;;;3.63;1.50;;;16.60;89.30;;;;;;5075906;28;20193;-89
2021/08/28 10:36:31;;;;;;;1.80;1.50;;;16.60;89.40;;;;;;5075689;28;20170;-90
2021/08/28 10:38:57;;;;;;;2.05;1.50;;;16.60;89.70;;;;;;5076442;28;20279;-89
2021/08/28 10:41:24;;;;;;;3.42;1.75;;;16.70;90.40;;;;;;5075714;28;20167;-89
2021/08/28 10:43:50;;;;;;;4.10;1.85;;;16.80;90.30;;;;;;5093702;28;20236;-89
2021/08/28 10:46:40;;;;;;;3.63;1.73;;;16.90;90.70;;;;;;5093646;28;20253;-89
2021/08/28 10:49:06;;;;;;;2.47;1.60;;;17.00;90.60;;;;;;5075484;28;20728;-89
2021/08/28 10:51:34;;;;;;;3.13;1.90;;;16.90;89.30;;;;;;5093957;28;20171;-89
2021/08/28 10:54:23;;;;;;;1.58;1.45;;;16.80;89.20;;;;;;5075941;28;20578;-88
2021/08/28 10:56:54;;;;;;;2.85;1.83;;;16.80;89.40;;;;;;5093977;28;20163;-90
2021/08/28 10:59:22;;;;;;;1.73;1.45;;;16.70;89.50;;;;;;5093921;28;20194;-89
2021/08/28 11:01:59;;;;;;;2.83;1.95;;;16.70;89.40;;;;;;5076323;28;20178;-90
2021/08/28 11:04:34;;;;;;;4.18;2.25;;;16.70;89.50;;;;;;5093470;28;20153;-88
2021/08/28 11:07:27;;;;;;;4.75;2.17;;;16.60;89.10;;;;;;5075379;28;20166;-88
2021/08/28 11:10:15;;;;;;;2.25;1.90;;;16.50;89.00;;;;;;5090148;28;20290;-87
2021/08/28 11:12:42;;;;;;;4.28;1.70;;;16.50;89.40;;;;;;5075331;28;20220;-88
2021/08/28 11:15:29;;;;;;;2.80;1.75;;;16.50;89.50;;;;;;5075236;28;20175;-88
2021/08/28 11:18:05;;;;;;;2.72;1.77;;;16.60;89.80;;;;;;5093249;28;20236;-87
2021/08/28 11:20:41;;;;;;;4.93;2.13;;;16.60;89.30;;;;;;5075174;28;20178;-88
2021/08/28 11:23:12;;;;;;;4.60;2.15;;;16.70;89.40;;;;;;5094815;28;20231;-88
2021/08/28 11:25:41;;;;;;;2.72;1.83;;;16.70;89.70;;;;;;5079331;28;20163;-88
2021/08/28 11:28:07;;;;;;;8.77;2.17;;;16.70;89.70;;;;;;5079232;28;20191;-87
2021/08/28 11:30:44;;;;;;;3.20;1.80;;;16.70;89.90;;;;;;5079300;28;20749;-87
2021/08/28 11:33:10;;;;;;;4.85;1.67;;;16.70;90.00;;;;;;5079503;28;20174;-88
2021/08/28 11:35:40;;;;;;;2.00;1.60;;;16.80;89.90;;;;;;5079205;28;20174;-88
2021/08/28 11:38:07;;;;;;;2.28;1.42;;;16.70;89.70;;;;;;5078864;28;20206;-87
2021/08/28 11:40:35;;;;;;;1.88;1.60;;;16.80;89.30;;;;;;5097211;28;20573;-88
2021/08/28 11:43:09;;;;;;;1.27;1.17;;;16.90;89.40;;;;;;5097334;28;20218;-88
2021/08/28 11:45:40;;;;;;;2.30;1.48;;;16.90;88.40;;;;;;5078894;28;20167;-88
2021/08/28 11:48:13;;;;;;;2.67;1.27;;;16.80;87.70;;;;;;5097017;28;20187;-87
2021/08/28 11:50:40;;;;;;;2.90;1.30;;;16.80;88.10;;;;;;5096949;28;20163;-88
2021/08/28 11:53:06;;;;;;;2.13;1.25;;;16.80;88.50;;;;;;5078723;28;20185;-88
2021/08/28 11:55:35;;;;;;;2.05;1.20;;;16.60;89.10;;;;;;5078821;28;20182;-88
2021/08/28 11:58:06;;;;;;;1.27;1.17;;;16.50;89.90;;;;;;5078702;28;20218;-87
2021/08/28 12:00:36;;;;;;;2.80;1.50;;;16.50;90.40;;;;;;5078618;28;20167;-87
2021/08/28 12:03:03;;;;;;;3.08;1.30;;;16.50;90.40;;;;;;5078502;28;20229;-88
2021/08/28 12:05:30;;;;;;;2.45;1.50;;;16.40;90.50;;;;;;5096763;28;20173;-88
2021/08/28 12:07:57;;;;;;;2.08;1.20;;;16.40;90.80;;;;;;5078466;28;20175;-87
2021/08/28 12:10:23;;;;;;;2.58;1.17;;;16.30;90.40;;;;;;5078816;28;20174;-88
2021/08/28 12:12:55;;;;;;;1.63;1.05;;;16.40;90.60;;;;;;5078488;28;20646;-88
2021/08/28 12:15:23;;;;;;;1.25;0.90;;;16.40;90.60;;;;;;5096600;28;20175;-88
2021/08/28 12:17:53;;;;;;;1.10;0.77;;;16.40;90.40;;;;;;5078302;28;20177;-88
2021/08/28 12:20:31;;;;;;;3.53;1.10;;;16.50;90.40;;;;;;5096514;28;20155;-88
2021/08/28 12:23:00;;;;;;;1.30;1.00;;;16.50;90.40;;;;;;5078266;28;20194;-88
2021/08/28 12:25:27;;;;;;;1.25;1.10;;;16.60;90.60;;;;;;5096360;28;20171;-88
2021/08/28 12:27:53;;;;;;;1.50;0.95;;;16.60;90.10;;;;;;5078528;28;20175;-87
2021/08/28 12:30:21;;;;;;;0.77;0.77;;;16.70;90.20;;;;;;5078454;28;20170;-88
2021/08/28 12:32:46;;;;;;;1.77;1.02;;;16.70;89.80;;;;;;5096189;28;20177;-88
2021/08/28 12:35:12;;;;;;;0.68;0.68;;;16.80;89.90;;;;;;5076773;28;20182;-88
2021/08/28 12:37:38;;;;;;;1.58;0.70;;;16.80;89.70;;;;;;5078088;28;20175;-88
2021/08/28 12:40:13;;;;;;;0.60;0.60;;;16.80;89.40;;;;;;5078196;28;20182;-87
2021/08/28 12:42:44;;;;;;;1.13;0.70;;;16.90;89.50;;;;;;5077817;28;20190;-88
2021/08/28 12:45:16;;;;;;;0.70;0.70;;;17.00;89.40;;;;;;5077907;28;20186;-88